METAR

Letisková meteorologická správa METAR

Meteorologické informácie z ďalších profesionálnych meteorologických staníc SHMÚ zobrazené v tvare zodpovedajúcom pravidlám kódovania správ METAR sú uvedené v položke „METSYN

Informácie o správe METAR

26.09.2017 - 18:00 UTC

METAR LZIB 261800Z 02003KT 9999 FEW048 16/13 Q1024 NOSIG=
METAR LZKZ 261800Z 36007KT CAVOK 17/12 Q1025=
METAR LZPP 261800Z VRB02KT CAVOK 16/13 Q1025=
METAR LZSL 261800Z VRB01KT CAVOK 16/12 Q1025=
METAR LZTT 261800Z VRB02KT 9999 FEW040 12/10 Q1027=
METAR LZZI 261800Z VRB02KT CAVOK 15/12 Q1026=

26.09.2017 - 17:30 UTC

METAR LZIB 261730Z 01003KT 9999 FEW048 18/13 Q1024 NOSIG=
METAR LZKZ 261730Z 36008KT CAVOK 18/11 Q1025=
METAR LZPP 261730Z 34002KT CAVOK 17/13 Q1024=
METAR LZSL 261730Z VRB02KT CAVOK 17/12 Q1025=
METAR LZTT 261730Z VRB02KT 9999 FEW036 12/09 Q1027=
METAR LZZI 261730Z 11004KT 9999 FEW060 16/12 Q1025=

26.09.2017 - 18:00 UTC

METAR LZMC 261800Z 00000KT CAVOK 14/11 Q1025=
METAR LZPW 261800Z 06006KT CAVOK 15/13 Q1026=

skok na menu ↑


skok na začiatok stránky ↑